Flight Track Log - Related Links

Times and Time Zones

All times are in EDT time to prevent confusion due to time zone crossing. See the ASQ9184 flight status page for this flight to view local times or setup timezone preferences in your user account.

Time Position Orientation Groundspeed Altitude Reporting Facility
EDT Latitude Longitude Course Direction KTS MPH feet Rate Location/Type
Fri 10:56:48 PM 35.1956 -80.9533 182° South 199 229 1,700  Level Atlanta Center
Fri 10:57:43 PM 35.1453 -80.9553 208° Southwest 223 257 4,100 3,193 Climbing Atlanta Center
Fri 10:58:37 PM 35.0961 -80.9875 282° West 253 291 7,500 2,105 Climbing Atlanta Center
Fri 10:59:37 PM 35.1106 -81.0681 354° North 280 322 8,100 1,600 Climbing Atlanta Center
Fri 11:00:37 PM 35.1881 -81.0781 296° West 287 330 10,700 2,800 Climbing Atlanta Center
Fri 11:01:37 PM 35.2169 -81.1508 255° West 259 298 13,700 1,650 Climbing Atlanta Center
Fri 11:02:37 PM 35.2000 -81.2275 257° West 284 327 14,000 650 Climbing Atlanta Center
Fri 11:03:37 PM 35.1814 -81.3272 257° West 294 338 15,000 1,400 Climbing Atlanta Center
Fri 11:04:37 PM 35.1589 -81.4475 261° West 341 392 16,800 2,050 Climbing Atlanta Center
Fri 11:05:37 PM 35.1428 -81.5775 264° West 354 407 19,100 2,050 Climbing Atlanta Center
Fri 11:06:37 PM 35.1328 -81.6997 267° West 364 419 20,900 1,650 Climbing Atlanta Center
Fri 11:07:37 PM 35.1267 -81.8269 268° West 371 427 22,400 1,050 Climbing Atlanta Center
Fri 11:08:37 PM 35.1228 -81.9564 292° West 381 438 23,000 450 Climbing Atlanta Center
Fri 11:09:37 PM 35.1644 -82.0850 304° West 390 449 23,300 800 Climbing Atlanta Center
Fri 11:10:37 PM 35.2267 -82.1981 310° West 396 456 24,600 1,550 Climbing Atlanta Center
Fri 11:11:37 PM 35.2992 -82.3058 301° West 407 468 26,400 1,550 Climbing Atlanta Center
Fri 11:12:37 PM 35.3506 -82.4092 285° West 412 474 27,700 1,250 Climbing Atlanta Center
Fri 11:13:37 PM 35.3794 -82.5383 283° West 393 452 28,900 1,150 Climbing Atlanta Center
Fri 11:14:37 PM 35.4061 -82.6858 284° West 393 452 30,000 1,050 Climbing Atlanta Center
Fri 11:15:37 PM 35.4347 -82.8228 283° West 408 470 31,000 1,100 Climbing Atlanta Center
Fri 11:16:37 PM 35.4611 -82.9628 282° West 416 479 32,200 1,200 Climbing Atlanta Center
Fri 11:17:37 PM 35.4853 -83.0975 284° West 416 479 33,400 1,050 Climbing Atlanta Center
Fri 11:18:37 PM 35.5069 -83.2069 286° West 411 473 34,300 1,100 Climbing Atlanta Center
Fri 11:19:37 PM 35.5411 -83.3547 282° West 411 473 35,600 850 Climbing Atlanta Center
Fri 11:20:37 PM 35.5647 -83.4897 283° West 411 473 36,000 200 Climbing Atlanta Center
Fri 11:21:37 PM 35.5903 -83.6275 285° West 411 473 36,000  Level Atlanta Center
Fri 11:22:37 PM 35.6178 -83.7578 282° West 411 473 36,000  Level Atlanta Center
Fri 11:23:37 PM 35.6411 -83.8881 284° West 406 467 36,000  Level Atlanta Center
Fri 11:24:37 PM 35.6661 -84.0158 282° West 400 460 36,000  Level Atlanta Center
Fri 11:25:37 PM 35.6889 -84.1461 284° West 394 453 36,000  Level Atlanta Center
Fri 11:26:37 PM 35.7139 -84.2742 282° West 389 448 36,000  Level Atlanta Center
Fri 11:27:37 PM 35.7364 -84.4019 284° West 389 448 36,000  Level Atlanta Center
Fri 11:28:37 PM 35.7631 -84.5378 282° West 394 453 36,000  Level Atlanta Center
Fri 11:30:11 PM 35.8006 -84.7569 287° West 391 450 36,000  Level Memphis Center
Fri 11:31:11 PM 35.8311 -84.8803 279° West 406 467 36,000  Level Memphis Center
Fri 11:32:11 PM 35.8475 -85.0125 283° West 401 461 36,000  Level Memphis Center
Fri 11:33:11 PM 35.8744 -85.1567 282° West 407 468 36,000  Level Memphis Center
Fri 11:34:11 PM 35.8964 -85.2858 283° West 396 456 36,000  Level Memphis Center
Fri 11:35:11 PM 35.9150 -85.3847 282° West 390 449 36,000  Level Memphis Center
Fri 11:36:11 PM 35.9392 -85.5242 282° West 385 443 36,000  Level Memphis Center
Fri 11:37:11 PM 35.9608 -85.6511 281° West 385 443 36,000  Level Memphis Center
Fri 11:38:11 PM 35.9825 -85.7858 284° West 392 451 36,000  Level Memphis Center
Fri 11:39:11 PM 36.0106 -85.9256 281° West 392 451 36,000  Level Memphis Center
Fri 11:40:11 PM 36.0319 -86.0578 282° West 392 451 36,000  Level Memphis Center
Fri 11:41:11 PM 36.0528 -86.1825 281° West 387 445 36,000  Level Memphis Center
Fri 11:42:11 PM 36.0736 -86.3097 281° West 387 445 36,000  Level Memphis Center
Fri 11:43:11 PM 36.0919 -86.4219 281° West 387 445 36,000  Level Memphis Center
Fri 11:44:11 PM 36.1128 -86.5544 280° West 387 445 36,000  Level Memphis Center
Fri 11:45:11 PM 36.1311 -86.6822 271° West 387 445 36,000  Level Memphis Center
Fri 11:46:11 PM 36.1328 -86.8131 271° West 387 445 36,000  Level Memphis Center
Fri 11:47:11 PM 36.1350 -86.9594 272° West 387 445 36,000  Level Memphis Center
Fri 11:48:11 PM 36.1386 -87.0931 271° West 387 445 36,000  Level Memphis Center
Fri 11:49:11 PM 36.1397 -87.2189 271° West 381 438 36,000  Level Memphis Center
Fri 11:50:11 PM 36.1408 -87.3500 270° West 381 438 36,000  Level Memphis Center
Fri 11:51:11 PM 36.1417 -87.4783 270° West 386 444 36,000  Level Memphis Center
Fri 11:52:11 PM 36.1425 -87.6069 272° West 386 444 36,000  Level Memphis Center
Fri 11:53:11 PM 36.1456 -87.7378 269° West 386 444 36,000  Level Memphis Center
Fri 11:54:11 PM 36.1436 -87.8536 270° West 386 444 36,000  Level Memphis Center
Fri 11:55:11 PM 36.1442 -87.9847 270° West 386 444 36,000  Level Memphis Center
Fri 11:56:11 PM 36.1444 -88.1183 271° West 386 444 36,000  Level Memphis Center
Fri 11:57:11 PM 36.1467 -88.2417 269° West 381 438 36,000  Level Memphis Center
Fri 11:58:11 PM 36.1447 -88.3703 270° West 381 438 36,000  Level Memphis Center
Fri 11:59:11 PM 36.1447 -88.4986 270° West 386 444 36,000  Level Memphis Center
Sat 12:00:11 AM 36.1444 -88.6325 269° West 386 444 36,000  Level Memphis Center
Sat 12:01:11 AM 36.1419 -88.7636 269° West 386 444 36,000  Level Memphis Center
Sat 12:02:11 AM 36.1397 -88.9047 270° West 386 444 36,000  Level Memphis Center
Sat 12:03:11 AM 36.1389 -89.0386 267° West 386 444 36,000  Level Memphis Center
Sat 12:04:11 AM 36.1342 -89.1697 270° West 386 444 36,000  Level Memphis Center
Sat 12:05:11 AM 36.1333 -89.3033 269° West 386 444 36,000  Level Memphis Center
Sat 12:06:11 AM 36.1322 -89.4369 270° West 386 444 36,000  Level Memphis Center
Sat 12:07:11 AM 36.1331 -89.5706 269° West 386 444 36,000  Level Memphis Center
Sat 12:08:11 AM 36.1319 -89.7017 268° West 386 444 36,000  Level Memphis Center
Sat 12:09:11 AM 36.1283 -89.8381 269° West 386 444 36,000  Level Memphis Center
Sat 12:10:11 AM 36.1267 -89.9664 269° West 386 444 36,000  Level Memphis Center
Sat 12:11:11 AM 36.1250 -90.1000 269° West 386 444 36,000  Level Memphis Center
Sat 12:12:11 AM 36.1231 -90.2286 269° West 386 444 36,000  Level Memphis Center
Sat 12:13:11 AM 36.1211 -90.3647 268° West 386 444 36,000  Level Memphis Center
Sat 12:14:11 AM 36.1169 -90.4931 268° West 386 444 36,000  Level Memphis Center
Sat 12:15:11 AM 36.1125 -90.6267 270° West 386 444 36,000  Level Memphis Center
Sat 12:16:11 AM 36.1122 -90.7450 269° West 386 444 36,000  Level Memphis Center
Sat 12:17:11 AM 36.1097 -90.8758 270° West 386 444 36,000  Level Memphis Center
Sat 12:18:11 AM 36.1089 -91.0094 273° West 386 444 36,000  Level Memphis Center
Sat 12:19:11 AM 36.1144 -91.1406 272° West 386 444 36,000  Level Memphis Center
Sat 12:20:11 AM 36.1178 -91.2717 274° West 386 444 36,000  Level Memphis Center
Sat 12:21:11 AM 36.1250 -91.4028 272° West 386 444 36,000  Level Memphis Center
Sat 12:22:11 AM 36.1281 -91.5339 272° West 386 444 36,000  Level Memphis Center
Sat 12:23:11 AM 36.1308 -91.6650 272° West 386 444 36,000  Level Memphis Center
Sat 12:24:11 AM 36.1336 -91.7986 274° West 386 444 36,000  Level Memphis Center
Sat 12:25:11 AM 36.1403 -91.9350 274° West 386 444 36,000  Level Memphis Center
Sat 12:26:11 AM 36.1469 -92.0689 272° West 386 444 36,000  Level Memphis Center
Sat 12:27:11 AM 36.1511 -92.2156 272° West 386 444 36,000  Level Memphis Center
Sat 12:28:11 AM 36.1553 -92.3517 272° West 391 450 36,000  Level Memphis Center
Sat 12:29:11 AM 36.1592 -92.4906 270° West 397 457 36,000  Level Memphis Center
Sat 12:30:11 AM 36.1589 -92.6244 273° West 403 464 36,000  Level Memphis Center
Sat 12:31:11 AM 36.1647 -92.7633 272° West 403 464 36,000  Level Memphis Center
Sat 12:32:11 AM 36.1681 -92.9047 272° West 403 464 36,000  Level Memphis Center
Sat 12:33:11 AM 36.1714 -93.0464 271° West 403 464 36,000  Level Memphis Center
Sat 12:34:11 AM 36.1725 -93.1800 272° West 403 464 36,000  Level Memphis Center
Sat 12:35:11 AM 36.1756 -93.3217 270° West 403 464 36,000  Level Memphis Center
Sat 12:36:11 AM 36.1764 -93.4606 272° West 403 464 36,000  Level Memphis Center
Sat 12:37:11 AM 36.1811 -93.5969 270° West 403 464 36,000  Level Memphis Center
Sat 12:38:11 AM 36.1817 -93.7333 269° West 403 464 36,000  Level Memphis Center
Sat 12:39:11 AM 36.1800 -93.8744 272° West 403 464 36,000  Level Memphis Center
Sat 12:40:11 AM 36.1842 -94.0161 270° West 403 464 36,000  Level Memphis Center
Sat 12:41:11 AM 36.1842 -94.1550 272° West 403 464 36,000  Level Memphis Center
Sat 12:42:11 AM 36.1881 -94.2967 270° West 403 464 36,000  Level Memphis Center
Sat 12:43:11 AM 36.1878 -94.4381 272° West 403 464 36,000  Level Memphis Center
Sat 12:44:11 AM 36.1914 -94.5797 271° West 408 470 36,000  Level Memphis Center
Sat 12:46:24 AM 36.1936 -94.8894 271° West 405 466 36,000  Level Kansas Center
Sat 12:47:24 AM 36.1953 -95.0311 270° West 405 466 36,000  Level Kansas Center
Sat 12:48:24 AM 36.1944 -95.1700 271° West 410 472 36,000  Level Kansas Center
Sat 12:49:24 AM 36.1958 -95.2989 270° West 410 472 36,000  Level Kansas Center
Sat 12:50:24 AM 36.1947 -95.4456 270° West 415 478 36,000  Level Kansas Center
Sat 12:51:24 AM 36.1956 -95.5922 270° West 421 484 36,000  Level Kansas Center
Sat 12:52:24 AM 36.1961 -95.7389 264° West 421 484 36,000 -300 Level Kansas Center
Sat 12:53:24 AM 36.1842 -95.8881 260° West 421 484 35,400 -1,000 Descending Kansas Center
Sat 12:54:24 AM 36.1636 -96.0394 261° West 439 505 34,000 -1,450 Descending Kansas Center
Sat 12:55:24 AM 36.1447 -96.1856 261° West 439 505 32,500 -1,500 Descending Kansas Center
Sat 12:56:24 AM 36.1239 -96.3394 261° West 447 514 31,000 -1,600 Descending Kansas Center
Sat 12:57:24 AM 36.1047 -96.4933 260° West 447 514 29,300 -1,850 Descending Kansas Center
Sat 12:58:24 AM 36.0833 -96.6419 260° West 447 514 27,300 -2,095 Descending Kansas Center
Sat 01:00:33 AM 36.0331 -96.9747 256° West 428 493 22,700 -2,127 Descending Fort Center
Sat 01:01:33 AM 36.0042 -97.1186 221° Southwest 431 496 20,600 -2,182 Descending Fort Center
Sat 01:02:34 AM 35.9147 -97.2136 211° Southwest 435 501 18,300 -2,213 Descending Fort Center
Sat 01:03:35 AM 35.8150 -97.2881 210° Southwest 418 481 16,100 -2,268 Descending Fort Center
Sat 01:04:41 AM 35.7044 -97.3675 209° Southwest 400 460 13,500 -2,173 Descending Fort Center
Sat 01:05:42 AM 35.6128 -97.4289 192° South 381 438 11,500 -1,636 Descending Fort Center
Sat 01:06:42 AM 35.5250 -97.4519 188° South 325 374 10,200 -1,537 Descending Fort Center
Sat 01:07:43 AM 35.4417 -97.4669 188° South 299 344 8,400 -1,721 Descending Fort Center
Sat 01:08:44 AM 35.3667 -97.4797 182° South 282 325 6,700 -1,736 Descending Fort Center
Sat 01:09:44 AM 35.2894 -97.4822 234° Southwest 269 310 4,900 -1,488 Descending Fort Center
Sat 01:10:45 AM 35.2539 -97.5431 305° West 242 278 3,700 -942 Descending Fort Center
Sat 01:11:45 AM 35.2831 -97.5942 360° North 189 217 3,000 -645 Descending Fort Center
Sat 01:12:46 AM 35.3186 -97.5942 360° North 128 147 2,400 -590 Descending Fort Center

Login

Don't have an account? Register now (free) for customized features, flight alerts, and more!